Time;durP1;ratioP1;P1;durP2;ratioP2;P2;SDS_P1;SDS_P2;PMS_P1;PMS_P2;Temp;Humidity;BMP_temperature;BMP_pressure;BME280_temperature;BME280_humidity;BME280_pressure;Samples;Min_cycle;Max_cycle;Signal;HPM_P1;HPM_P2
2023/03/09 00:02:04;;;;;;;28.45;19.00;;;1.40;99.90;;;;;;4968822;28;20051;-73
2023/03/09 00:04:31;;;;;;;27.90;19.88;;;1.40;99.90;;;;;;4967400;28;20054;-73
2023/03/09 00:06:57;;;;;;;29.75;19.13;;;1.40;99.90;;;;;;4965960;28;20467;-73
2023/03/09 00:09:23;;;;;;;31.27;19.67;;;1.40;99.90;;;;;;4967999;28;20046;-73
2023/03/09 00:11:50;;;;;;;27.38;19.95;;;1.40;99.90;;;;;;4969005;28;20432;-73
2023/03/09 00:14:18;;;;;;;31.30;21.23;;;1.40;99.90;;;;;;4968891;28;20138;-74
2023/03/09 00:16:44;;;;;;;32.83;21.23;;;1.40;99.90;;;;;;4985357;28;20500;-73
2023/03/09 00:19:10;;;;;;;29.40;18.13;;;1.40;99.90;;;;;;4970326;28;20058;-73
2023/03/09 00:21:40;;;;;;;31.20;21.15;;;1.40;99.90;;;;;;4969551;28;20538;-73
2023/03/09 00:24:12;;;;;;;33.67;19.52;;;1.30;99.90;;;;;;4972144;28;20427;-73
2023/03/09 00:26:40;;;;;;;32.25;21.77;;;1.30;99.90;;;;;;4988587;28;20167;-73
2023/03/09 00:29:08;;;;;;;32.45;21.20;;;1.30;99.90;;;;;;4980414;28;20046;-73
2023/03/09 00:31:34;;;;;;;33.10;20.30;;;1.20;99.90;;;;;;4975264;28;20042;-74
2023/03/09 00:34:00;;;;;;;37.00;21.50;;;1.10;99.90;;;;;;4978854;28;20109;-73
2023/03/09 00:36:26;;;;;;;32.03;21.85;;;1.10;99.90;;;;;;4973514;28;20052;-74
2023/03/09 00:38:56;;;;;;;36.72;22.90;;;1.10;99.90;;;;;;4970212;28;20038;-73
2023/03/09 00:41:23;;;;;;;33.70;21.75;;;1.10;99.90;;;;;;4960760;28;20824;-73
2023/03/09 00:43:49;;;;;;;35.03;22.73;;;1.10;99.90;;;;;;4970542;28;20050;-73
2023/03/09 00:46:16;;;;;;;41.75;23.92;;;1.00;99.90;;;;;;4975614;28;20053;-74
2023/03/09 00:48:42;;;;;;;36.90;22.42;;;1.00;99.90;;;;;;4971455;28;20097;-74
2023/03/09 00:51:09;;;;;;;35.90;25.10;;;1.00;99.90;;;;;;4980126;28;20050;-73
2023/03/09 00:53:37;;;;;;;39.53;23.70;;;0.90;99.90;;;;;;4991207;28;20771;-74
2023/03/09 00:56:06;;;;;;;33.28;21.83;;;0.90;99.90;;;;;;4972258;28;20082;-73
2023/03/09 00:58:32;;;;;;;34.58;22.25;;;0.90;99.90;;;;;;4969124;28;20069;-74
2023/03/09 01:00:58;;;;;;;34.88;24.48;;;0.90;99.90;;;;;;4986768;28;20042;-73
2023/03/09 01:03:24;;;;;;;34.28;21.95;;;0.90;99.90;;;;;;4966163;28;20057;-74
2023/03/09 01:05:50;;;;;;;29.90;19.92;;;0.90;99.90;;;;;;4971211;28;20077;-73
2023/03/09 01:08:16;;;;;;;31.50;19.60;;;0.90;99.90;;;;;;4976837;28;20042;-73
2023/03/09 01:10:42;;;;;;;25.35;18.05;;;0.90;99.90;;;;;;4976874;28;20112;-74
2023/03/09 01:13:09;;;;;;;29.20;18.60;;;0.90;99.90;;;;;;4982584;28;20050;-73
2023/03/09 01:15:35;;;;;;;29.95;18.33;;;0.90;99.90;;;;;;4969972;28;20149;-73
2023/03/09 01:18:01;;;;;;;29.08;19.23;;;0.90;99.90;;;;;;4986472;28;20128;-74
2023/03/09 01:20:27;;;;;;;27.35;18.55;;;0.90;99.90;;;;;;4976087;28;20511;-74
2023/03/09 01:22:52;;;;;;;30.02;19.13;;;0.90;99.90;;;;;;4987679;28;20132;-74
2023/03/09 01:25:18;;;;;;;26.55;19.05;;;0.90;99.90;;;;;;4992545;28;20061;-73
2023/03/09 01:27:44;;;;;;;30.45;19.30;;;0.90;99.90;;;;;;4977845;28;20050;-74
2023/03/09 01:30:11;;;;;;;29.60;20.55;;;0.90;99.90;;;;;;4983344;28;20043;-74
2023/03/09 01:32:36;;;;;;;25.70;19.88;;;0.90;99.90;;;;;;4969027;28;20053;-73
2023/03/09 01:35:03;;;;;;;30.40;21.58;;;0.90;99.90;;;;;;4970861;28;20062;-74
2023/03/09 01:37:29;;;;;;;28.38;19.60;;;0.90;99.90;;;;;;4981780;28;20129;-73
2023/03/09 01:39:55;;;;;;;22.88;17.58;;;0.90;99.90;;;;;;4971654;28;20149;-74
2023/03/09 01:42:20;;;;;;;30.77;21.70;;;0.90;99.90;;;;;;4972987;28;20057;-74
2023/03/09 01:45:26;;;;;;;30.15;20.10;;;0.90;99.90;;;;;;4975618;28;20046;-74
2023/03/09 01:47:53;;;;;;;27.23;18.83;;;0.90;99.90;;;;;;4965667;28;20130;-74
2023/03/09 01:50:30;;;;;;;27.58;18.55;;;0.90;99.90;;;;;;4980638;28;20515;-74
2023/03/09 01:53:01;;;;;;;30.77;19.40;;;0.90;99.90;;;;;;4961451;28;20047;-74
2023/03/09 01:55:34;;;;;;;22.95;17.65;;;0.90;99.90;;;;;;4968607;28;20060;-74
2023/03/09 01:58:07;;;;;;;28.25;19.38;;;0.90;99.90;;;;;;4975108;28;20042;-74
2023/03/09 02:00:35;;;;;;;26.55;17.92;;;0.90;99.90;;;;;;4984583;28;20392;-74
2023/03/09 02:03:03;;;;;;;24.65;16.20;;;0.90;99.90;;;;;;4985072;28;20460;-73
2023/03/09 02:05:38;;;;;;;26.48;17.63;;;0.90;99.90;;;;;;4986646;28;20057;-73
2023/03/09 02:08:05;;;;;;;26.08;18.42;;;0.90;99.90;;;;;;4970659;28;20563;-73
2023/03/09 02:10:37;;;;;;;26.38;18.20;;;0.90;99.90;;;;;;4969485;28;20042;-73
2023/03/09 02:13:09;;;;;;;23.60;17.30;;;0.90;99.90;;;;;;4988050;28;20054;-73
2023/03/09 02:15:35;;;;;;;25.75;17.95;;;0.90;99.90;;;;;;4972907;28;20042;-74
2023/03/09 02:18:01;;;;;;;28.63;19.30;;;0.90;99.90;;;;;;4985338;28;20042;-73
2023/03/09 02:20:44;;;;;;;25.25;16.52;;;0.80;99.90;;;;;;4967686;28;20096;-74
2023/03/09 02:23:24;;;;;;;27.35;18.05;;;0.90;99.90;;;;;;4959279;28;20064;-74
2023/03/09 02:26:08;;;;;;;26.35;18.33;;;0.90;99.90;;;;;;4972822;28;20061;-74
2023/03/09 02:28:34;;;;;;;25.20;17.13;;;0.80;99.90;;;;;;4973750;28;20061;-73
2023/03/09 02:31:01;;;;;;;26.08;17.77;;;0.80;99.90;;;;;;4981969;28;20043;-74
2023/03/09 02:33:28;;;;;;;33.70;19.75;;;0.80;99.90;;;;;;4989431;28;20139;-74
2023/03/09 02:35:56;;;;;;;32.22;20.73;;;0.90;99.90;;;;;;4988163;28;20053;-74
2023/03/09 02:38:22;;;;;;;28.88;19.45;;;0.80;99.90;;;;;;4973818;28;20061;-74
2023/03/09 02:40:49;;;;;;;28.02;19.42;;;0.80;99.90;;;;;;4988969;28;20050;-74
2023/03/09 02:43:19;;;;;;;28.73;20.00;;;0.80;99.90;;;;;;4973306;28;20044;-74
2023/03/09 02:45:46;;;;;;;27.75;18.67;;;0.80;99.90;;;;;;4980700;28;20824;-73
2023/03/09 02:48:12;;;;;;;30.40;19.63;;;0.80;99.90;;;;;;4973761;28;20047;-74
2023/03/09 02:50:38;;;;;;;33.40;19.75;;;0.80;99.90;;;;;;4987075;28;20662;-74
2023/03/09 02:53:04;;;;;;;31.75;20.52;;;0.80;99.90;;;;;;4971902;28;20625;-74
2023/03/09 02:55:29;;;;;;;33.15;21.75;;;0.80;99.90;;;;;;4989206;28;20054;-73
2023/03/09 02:57:55;;;;;;;30.52;19.80;;;0.80;99.90;;;;;;4989516;28;20519;-73
2023/03/09 03:00:22;;;;;;;29.27;18.65;;;0.80;99.90;;;;;;4972072;28;20047;-74
2023/03/09 03:02:47;;;;;;;33.10;21.55;;;0.80;99.90;;;;;;4972945;28;20053;-73
2023/03/09 03:05:13;;;;;;;29.20;19.70;;;0.80;99.90;;;;;;4972338;28;20047;-74
2023/03/09 03:07:39;;;;;;;31.65;22.23;;;0.80;99.90;;;;;;4971559;28;20519;-73
2023/03/09 03:10:06;;;;;;;36.22;22.48;;;0.80;99.90;;;;;;4966223;28;20057;-74
2023/03/09 03:12:31;;;;;;;29.17;20.10;;;0.80;99.90;;;;;;4976401;28;20077;-73
2023/03/09 03:14:57;;;;;;;31.67;20.52;;;0.80;99.90;;;;;;4981059;28;20511;-73
2023/03/09 03:17:23;;;;;;;31.45;21.58;;;0.90;99.90;;;;;;4972878;28;20052;-73
2023/03/09 03:19:49;;;;;;;35.85;21.77;;;0.90;99.90;;;;;;4973828;28;20050;-73
2023/03/09 03:22:14;;;;;;;32.42;20.80;;;0.80;99.90;;;;;;4971942;28;20058;-74
2023/03/09 03:24:40;;;;;;;37.20;22.98;;;0.80;99.90;;;;;;4960296;28;20057;-74
2023/03/09 03:27:07;;;;;;;30.92;21.50;;;0.80;99.90;;;;;;4968230;28;20094;-74
2023/03/09 03:29:33;;;;;;;32.22;21.10;;;0.80;99.90;;;;;;4967514;28;20042;-73
2023/03/09 03:32:00;;;;;;;30.95;22.40;;;0.80;99.90;;;;;;4969452;28;20757;-74
2023/03/09 03:34:26;;;;;;;29.45;20.67;;;0.80;99.90;;;;;;4969499;28;20244;-74
2023/03/09 03:36:52;;;;;;;31.65;22.40;;;0.80;99.90;;;;;;4969315;28;20138;-73
2023/03/09 03:39:18;;;;;;;26.60;20.27;;;0.80;99.90;;;;;;4968526;28;20058;-74
2023/03/09 03:41:43;;;;;;;28.92;19.25;;;0.80;99.90;;;;;;4966046;28;20047;-74
2023/03/09 03:44:09;;;;;;;25.65;19.30;;;0.80;99.90;;;;;;4968052;28;20045;-73
2023/03/09 03:46:35;;;;;;;30.95;21.42;;;0.80;99.90;;;;;;4968966;28;20567;-74
2023/03/09 03:49:00;;;;;;;33.30;22.48;;;0.80;99.90;;;;;;4966265;28;20047;-73
2023/03/09 03:51:26;;;;;;;29.92;20.90;;;0.80;99.90;;;;;;4959377;28;20158;-74
2023/03/09 03:53:53;;;;;;;29.60;21.73;;;0.80;99.90;;;;;;4965144;28;20047;-74
2023/03/09 03:56:19;;;;;;;29.33;21.70;;;0.80;99.90;;;;;;4973570;28;20051;-73
2023/03/09 03:58:46;;;;;;;39.88;23.95;;;0.80;99.90;;;;;;4966314;28;20077;-73
2023/03/09 04:01:12;;;;;;;33.67;22.67;;;0.70;99.90;;;;;;4984202;28;20047;-74
2023/03/09 04:03:38;;;;;;;39.92;24.77;;;0.70;99.90;;;;;;4969143;28;20416;-73
2023/03/09 04:06:04;;;;;;;36.78;25.05;;;0.70;99.90;;;;;;4968558;28;20082;-74
2023/03/09 04:08:31;;;;;;;36.33;23.10;;;0.70;99.90;;;;;;4968199;28;20055;-73
2023/03/09 04:10:57;;;;;;;40.35;25.73;;;0.70;99.90;;;;;;4967728;28;20105;-74
2023/03/09 04:13:22;;;;;;;38.75;25.25;;;0.70;99.90;;;;;;4966163;28;20647;-74
2023/03/09 04:15:48;;;;;;;35.13;24.65;;;0.70;99.90;;;;;;4980002;28;20050;-73
2023/03/09 04:18:14;;;;;;;42.80;26.48;;;0.70;99.90;;;;;;4967546;28;20419;-73
2023/03/09 04:20:41;;;;;;;39.40;26.15;;;0.70;99.90;;;;;;4967213;28;20523;-73
2023/03/09 04:23:09;;;;;;;43.67;26.45;;;0.70;99.90;;;;;;4972427;28;20141;-74
2023/03/09 04:25:34;;;;;;;40.10;26.08;;;0.70;99.90;;;;;;4970203;28;20046;-74
2023/03/09 04:28:05;;;;;;;40.17;27.00;;;0.70;99.90;;;;;;4960549;28;20361;-74
2023/03/09 04:30:31;;;;;;;39.67;26.33;;;0.70;99.90;;;;;;4977997;28;20073;-74
2023/03/09 04:32:56;;;;;;;42.63;29.40;;;0.70;99.90;;;;;;4969022;28;20516;-74
2023/03/09 04:35:22;;;;;;;40.83;27.77;;;0.70;99.90;;;;;;4986801;28;20054;-74
2023/03/09 04:37:48;;;;;;;44.47;26.98;;;0.70;99.90;;;;;;4971283;28;20108;-73
2023/03/09 04:40:14;;;;;;;43.78;27.65;;;0.70;99.90;;;;;;4970528;28;20050;-73
2023/03/09 04:42:40;;;;;;;47.63;28.30;;;0.70;99.90;;;;;;4986326;28;20077;-73
2023/03/09 04:45:07;;;;;;;44.97;30.38;;;0.70;99.90;;;;;;4981185;28;20121;-74
2023/03/09 04:47:32;;;;;;;43.03;28.90;;;0.70;99.90;;;;;;4969439;28;20046;-73
2023/03/09 04:49:58;;;;;;;43.10;29.10;;;0.70;99.90;;;;;;4965167;28;20423;-73
2023/03/09 04:52:24;;;;;;;41.03;29.00;;;0.70;99.90;;;;;;4971060;28;20046;-73
2023/03/09 04:54:50;;;;;;;51.38;29.70;;;0.70;99.90;;;;;;4970215;28;20043;-73
2023/03/09 04:57:17;;;;;;;46.58;28.65;;;0.70;99.90;;;;;;4971201;28;20062;-73
2023/03/09 04:59:43;;;;;;;44.50;29.65;;;0.80;99.90;;;;;;4971009;28;20507;-73
2023/03/09 05:02:08;;;;;;;44.78;29.90;;;0.70;99.90;;;;;;4970882;28;20045;-74
2023/03/09 05:04:36;;;;;;;48.17;28.70;;;0.70;99.90;;;;;;4984608;28;20818;-74
2023/03/09 05:07:02;;;;;;;48.00;30.77;;;0.70;99.90;;;;;;4969169;28;20085;-73
2023/03/09 05:09:28;;;;;;;47.67;29.95;;;0.70;99.90;;;;;;4969900;28;20058;-73
2023/03/09 05:11:53;;;;;;;48.28;31.48;;;0.60;99.90;;;;;;4986632;28;20053;-73
2023/03/09 05:14:19;;;;;;;44.88;28.85;;;0.60;99.90;;;;;;4981636;28;20050;-73
2023/03/09 05:16:50;;;;;;;51.28;30.67;;;0.60;99.90;;;;;;4971334;28;20050;-73
2023/03/09 05:19:16;;;;;;;48.38;30.65;;;0.60;99.90;;;;;;4965927;28;20419;-73
2023/03/09 05:21:42;;;;;;;50.88;30.85;;;0.60;99.90;;;;;;4984119;28;20430;-73
2023/03/09 05:24:08;;;;;;;47.50;30.40;;;0.60;99.90;;;;;;4984465;28;20058;-73
2023/03/09 05:26:33;;;;;;;47.58;30.20;;;0.60;99.90;;;;;;4975073;28;20042;-73
2023/03/09 05:28:59;;;;;;;48.92;30.25;;;0.60;99.90;;;;;;4986892;28;20551;-73
2023/03/09 05:31:25;;;;;;;48.90;29.73;;;0.60;99.90;;;;;;4970340;28;20115;-73
2023/03/09 05:33:52;;;;;;;45.92;28.63;;;0.60;99.90;;;;;;4981780;28;20510;-73
2023/03/09 05:36:21;;;;;;;47.27;28.00;;;0.60;99.90;;;;;;4967869;28;20402;-73
2023/03/09 05:38:49;;;;;;;48.08;28.88;;;0.60;99.90;;;;;;4966862;28;20305;-73
2023/03/09 05:41:16;;;;;;;43.83;29.00;;;0.60;99.90;;;;;;4985937;28;20106;-73
2023/03/09 05:43:42;;;;;;;48.05;28.23;;;0.60;99.90;;;;;;4970229;28;20093;-73
2023/03/09 05:46:14;;;;;;;50.40;30.77;;;0.50;99.90;;;;;;4986752;28;20042;-73
2023/03/09 05:48:41;;;;;;;47.42;30.38;;;0.60;99.90;;;;;;4970691;28;20050;-72
2023/03/09 05:51:08;;;;;;;49.80;29.42;;;0.60;99.90;;;;;;4968739;28;20121;-72
2023/03/09 05:53:35;;;;;;;54.53;31.65;;;0.60;99.90;;;;;;4971314;28;20055;-72
2023/03/09 05:56:03;;;;;;;49.30;30.42;;;0.60;99.90;;;;;;4984486;28;20058;-72
2023/03/09 05:58:29;;;;;;;47.75;30.33;;;0.60;99.90;;;;;;4969716;28;20569;-72
2023/03/09 06:00:56;;;;;;;50.20;31.08;;;0.60;99.90;;;;;;4986317;28;20050;-72
2023/03/09 06:03:23;;;;;;;47.58;27.02;;;0.50;99.90;;;;;;4968663;28;20050;-73
2023/03/09 06:05:56;;;;;;;45.60;28.50;;;0.60;99.90;;;;;;4988392;28;20051;-72
2023/03/09 06:08:22;;;;;;;49.85;29.77;;;0.50;99.90;;;;;;4988215;28;20054;-72
2023/03/09 06:10:48;;;;;;;51.72;31.02;;;0.50;99.90;;;;;;4971069;28;20043;-73
2023/03/09 06:13:13;;;;;;;51.40;30.45;;;0.60;99.90;;;;;;4973942;28;20415;-73
2023/03/09 06:15:41;;;;;;;53.25;27.67;;;0.50;99.90;;;;;;4973095;28;20503;-73
2023/03/09 06:18:07;;;;;;;46.63;29.85;;;0.60;99.90;;;;;;4989354;28;20384;-73
2023/03/09 06:20:33;;;;;;;49.53;29.80;;;0.60;99.90;;;;;;4973421;28;20049;-72
2023/03/09 06:22:59;;;;;;;52.50;29.27;;;0.60;99.90;;;;;;4973463;28;20054;-73
2023/03/09 06:25:26;;;;;;;47.47;29.88;;;0.60;99.90;;;;;;4971764;28;20521;-74
2023/03/09 06:27:51;;;;;;;47.40;29.02;;;0.60;99.90;;;;;;4986232;28;20049;-73
2023/03/09 06:30:17;;;;;;;44.20;29.48;;;0.70;99.90;;;;;;4978225;28;20050;-74
2023/03/09 06:32:43;;;;;;;44.95;28.98;;;0.70;99.90;;;;;;4988995;28;20523;-73
2023/03/09 06:35:08;;;;;;;54.15;30.73;;;0.70;99.90;;;;;;4973448;28;20054;-74
2023/03/09 06:37:34;;;;;;;45.45;29.23;;;0.70;99.90;;;;;;4972897;28;20483;-73
2023/03/09 06:40:00;;;;;;;45.97;30.85;;;0.70;99.90;;;;;;4989158;28;20101;-72
2023/03/09 06:42:26;;;;;;;43.45;29.05;;;0.70;99.90;;;;;;4988625;28;20054;-73
2023/03/09 06:44:52;;;;;;;52.35;31.27;;;0.70;99.90;;;;;;4987029;28;20078;-73
2023/03/09 06:47:17;;;;;;;44.25;30.48;;;0.70;99.90;;;;;;4970301;28;20404;-74
2023/03/09 06:49:43;;;;;;;49.78;33.03;;;0.70;99.90;;;;;;4988031;28;20078;-72
2023/03/09 06:52:09;;;;;;;44.38;30.17;;;0.70;99.90;;;;;;4989371;28;20050;-73
2023/03/09 06:54:43;;;;;;;50.67;31.00;;;0.70;99.90;;;;;;4984704;28;20053;-73
2023/03/09 06:57:09;;;;;;;45.78;29.25;;;0.70;99.90;;;;;;4976339;28;20054;-73
2023/03/09 06:59:35;;;;;;;48.67;32.92;;;0.70;99.90;;;;;;4975447;28;20050;-73
2023/03/09 07:02:01;;;;;;;56.35;34.72;;;0.80;99.90;;;;;;4977635;28;20124;-73
2023/03/09 07:04:26;;;;;;;50.90;31.75;;;0.80;99.90;;;;;;4988792;28;20521;-74
2023/03/09 07:06:52;;;;;;;44.95;31.88;;;0.70;99.90;;;;;;4986461;28;20554;-73
2023/03/09 07:09:18;;;;;;;51.92;31.55;;;0.80;99.90;;;;;;4980901;28;20038;-73
2023/03/09 07:11:45;;;;;;;47.60;31.40;;;0.80;99.90;;;;;;4974219;28;20604;-73
2023/03/09 07:14:10;;;;;;;45.38;29.52;;;0.80;99.90;;;;;;4987840;28;20603;-73
2023/03/09 07:16:43;;;;;;;47.70;31.17;;;0.80;99.90;;;;;;4964674;28;20105;-73
2023/03/09 07:19:09;;;;;;;51.90;30.42;;;0.90;99.90;;;;;;4978893;28;20442;-73
2023/03/09 07:21:34;;;;;;;49.90;31.27;;;0.90;99.90;;;;;;4988665;28;20042;-74
2023/03/09 07:24:01;;;;;;;47.63;29.77;;;0.90;99.90;;;;;;4989392;28;20487;-73
2023/03/09 07:26:27;;;;;;;48.05;30.33;;;1.00;99.90;;;;;;4978116;28;20050;-73
2023/03/09 07:28:52;;;;;;;45.35;31.42;;;1.00;99.90;;;;;;4977633;28;20400;-73
2023/03/09 07:31:18;;;;;;;47.63;30.90;;;1.00;99.90;;;;;;4974502;28;20057;-74
2023/03/09 07:33:48;;;;;;;51.25;32.78;;;1.00;99.90;;;;;;4972312;28;20073;-73
2023/03/09 07:36:14;;;;;;;47.10;30.55;;;1.00;99.90;;;;;;4985662;28;20053;-74
2023/03/09 07:38:43;;;;;;;46.97;30.20;;;1.00;99.90;;;;;;4986839;28;20046;-74
2023/03/09 07:41:09;;;;;;;47.53;29.17;;;1.10;99.90;;;;;;4972010;28;20069;-74
2023/03/09 07:43:43;;;;;;;44.75;29.48;;;1.10;99.90;;;;;;4974834;28;20046;-73
2023/03/09 07:46:13;;;;;;;43.78;28.85;;;1.10;99.90;;;;;;4972278;28;20046;-74
2023/03/09 07:48:39;;;;;;;49.00;31.50;;;1.10;99.90;;;;;;4972424;28;20126;-73
2023/03/09 07:51:07;;;;;;;47.92;32.35;;;1.10;99.90;;;;;;4971904;28;20046;-73
2023/03/09 07:53:35;;;;;;;48.78;31.38;;;1.10;99.90;;;;;;4971042;28;20408;-73
2023/03/09 07:56:03;;;;;;;38.40;27.25;;;1.20;99.90;;;;;;4969041;28;20495;-73
2023/03/09 07:58:32;;;;;;;49.33;30.60;;;1.20;99.90;;;;;;4969781;28;20092;-74
2023/03/09 08:00:59;;;;;;;44.78;29.75;;;1.20;99.90;;;;;;4971066;28;20053;-73
2023/03/09 08:03:25;;;;;;;44.63;31.63;;;1.20;99.90;;;;;;4971562;28;20105;-72
2023/03/09 08:05:55;;;;;;;45.58;30.33;;;1.30;99.90;;;;;;4970140;28;20097;-73
2023/03/09 08:08:23;;;;;;;49.42;31.42;;;1.40;99.90;;;;;;4973449;28;20073;-72
2023/03/09 08:10:49;;;;;;;;;;;1.50;99.90;;;;;;4987988;28;20047;-73
2023/03/09 08:13:16;;;;;;;47.08;31.50;;;1.50;99.90;;;;;;4977528;28;19921;-72
2023/03/09 08:15:41;;;;;;;48.10;31.42;;;1.50;99.90;;;;;;4980577;28;20061;-73
2023/03/09 08:18:07;;;;;;;50.83;30.85;;;1.50;99.90;;;;;;4986285;28;20050;-73
2023/03/09 08:20:33;;;;;;;45.97;29.63;;;1.50;99.90;;;;;;4971597;28;20038;-73
2023/03/09 08:22:59;;;;;;;50.60;31.42;;;1.50;99.90;;;;;;4971480;28;20046;-73
2023/03/09 08:25:25;;;;;;;43.10;29.73;;;1.50;99.90;;;;;;4971637;28;20718;-73
2023/03/09 08:27:51;;;;;;;48.85;30.88;;;1.50;99.90;;;;;;4986572;28;20034;-73
2023/03/09 08:30:20;;;;;;;43.47;29.83;;;1.50;99.90;;;;;;4965197;28;20451;-73
2023/03/09 08:32:53;;;;;;;42.70;29.10;;;1.50;99.90;;;;;;4968755;28;20050;-73
2023/03/09 08:35:22;;;;;;;46.30;29.63;;;1.60;99.90;;;;;;4964892;28;20046;-73
2023/03/09 08:37:48;;;;;;;42.97;31.35;;;1.50;99.90;;;;;;4986470;28;20121;-72
2023/03/09 08:40:15;;;;;;;42.28;30.15;;;1.60;99.90;;;;;;4984869;28;20438;-73
2023/03/09 08:42:41;;;;;;;48.75;30.23;;;1.60;99.90;;;;;;4987259;28;20089;-74
2023/03/09 08:45:08;;;;;;;45.60;31.55;;;1.70;99.90;;;;;;4970107;28;20112;-74
2023/03/09 08:47:34;;;;;;;51.45;31.80;;;1.80;99.90;;;;;;4968084;28;20081;-74
2023/03/09 08:50:01;;;;;;;41.17;29.55;;;1.80;99.90;;;;;;4970761;28;20074;-74
2023/03/09 08:52:34;;;;;;;45.28;32.03;;;1.80;99.90;;;;;;4985104;28;20541;-74
2023/03/09 08:55:10;;;;;;;48.28;31.27;;;1.80;99.90;;;;;;4966281;28;20073;-74
2023/03/09 08:57:36;;;;;;;45.45;29.35;;;1.90;99.90;;;;;;4984497;28;20503;-73
2023/03/09 09:00:03;;;;;;;45.17;28.95;;;1.90;99.90;;;;;;4969468;28;20034;-73
2023/03/09 09:02:29;;;;;;;42.25;29.20;;;2.00;99.90;;;;;;4971222;28;20045;-73
2023/03/09 09:04:55;;;;;;;45.35;29.42;;;2.00;99.90;;;;;;4984335;28;20046;-74
2023/03/09 09:07:21;;;;;;;39.83;28.50;;;2.10;99.90;;;;;;4974512;28;20046;-74
2023/03/09 09:09:49;;;;;;;43.55;28.23;;;2.10;99.90;;;;;;4977553;28;20050;-73
2023/03/09 09:12:16;;;;;;;39.35;28.08;;;2.10;99.90;;;;;;4983027;28;20475;-73
2023/03/09 09:14:42;;;;;;;41.20;29.02;;;2.10;99.90;;;;;;4967845;28;20081;-73
2023/03/09 09:17:08;;;;;;;37.85;28.02;;;2.10;99.90;;;;;;4955101;28;20057;-74
2023/03/09 09:19:35;;;;;;;42.05;28.75;;;2.10;99.90;;;;;;4970214;28;20099;-73
2023/03/09 09:22:02;;;;;;;40.95;27.80;;;2.10;99.90;;;;;;4969321;28;20126;-74
2023/03/09 09:24:32;;;;;;;37.70;28.73;;;2.10;99.90;;;;;;4970561;28;20511;-74
2023/03/09 09:26:59;;;;;;;41.88;28.25;;;2.10;99.90;;;;;;4965453;28;20050;-74
2023/03/09 09:29:26;;;;;;;46.10;30.05;;;2.20;99.90;;;;;;4966602;28;21066;-73
2023/03/09 09:31:53;;;;;;;37.17;26.45;;;2.20;99.90;;;;;;4983894;28;20047;-72
2023/03/09 09:34:21;;;;;;;42.58;29.73;;;2.20;99.90;;;;;;4964330;28;22714;-72
2023/03/09 09:36:47;;;;;;;;;;;2.20;99.90;;;;;;4972566;28;20138;-71
2023/03/09 09:39:14;;;;;;;36.60;27.40;;;2.20;99.90;;;;;;4957880;28;19921;-71
2023/03/09 09:41:42;;;;;;;41.05;26.80;;;2.20;99.90;;;;;;4963745;28;20050;-71
2023/03/09 09:44:11;;;;;;;;;;;2.20;99.90;;;;;;4967174;28;21154;-73
2023/03/09 09:46:39;;;;;;;42.72;26.77;;;2.20;99.90;;;;;;4967744;28;19925;-72
2023/03/09 09:49:06;;;;;;;41.55;27.77;;;2.20;99.90;;;;;;4966379;28;20058;-72
2023/03/09 09:51:55;;;;;;;32.97;24.45;;;2.20;99.90;;;;;;4974503;28;20052;-72
2023/03/09 09:54:30;;;;;;;43.75;29.73;;;2.30;99.90;;;;;;4972910;28;20087;-72
2023/03/09 09:57:00;;;;;;;40.10;27.80;;;2.30;99.90;;;;;;4971585;28;20779;-72
2023/03/09 09:59:45;;;;;;;38.90;25.95;;;2.30;99.90;;;;;;4971256;28;20065;-72
2023/03/09 10:02:28;;;;;;;40.25;27.38;;;2.40;99.90;;;;;;4970450;28;20058;-72
2023/03/09 10:05:12;;;;;;;39.65;26.67;;;2.40;99.90;;;;;;4976606;28;20056;-72
2023/03/09 10:07:39;;;;;;;36.65;26.40;;;2.40;99.90;;;;;;4980316;28;20132;-72
2023/03/09 10:10:16;;;;;;;39.53;26.63;;;2.40;99.90;;;;;;4990727;28;20050;-72
2023/03/09 10:12:44;;;;;;;38.08;24.98;;;2.40;99.90;;;;;;4980278;28;20058;-72
2023/03/09 10:15:36;;;;;;;42.63;27.95;;;2.40;99.90;;;;;;4976803;28;20046;-72
2023/03/09 10:18:10;;;;;;;35.17;25.85;;;2.50;99.90;;;;;;4973552;28;20046;-73
2023/03/09 10:20:47;;;;;;;37.40;25.63;;;2.50;99.90;;;;;;4981837;28;20062;-73
2023/03/09 10:23:22;;;;;;;37.33;23.60;;;2.60;99.90;;;;;;4972369;28;20538;-73
2023/03/09 10:25:57;;;;;;;36.80;24.27;;;2.70;99.90;;;;;;4990103;28;20050;-73
2023/03/09 10:28:27;;;;;;;38.00;27.30;;;2.70;99.90;;;;;;4979178;28;20081;-73
2023/03/09 10:31:01;;;;;;;41.22;27.15;;;2.70;99.90;;;;;;4990357;28;20122;-72
2023/03/09 10:33:42;;;;;;;34.60;25.70;;;2.70;99.90;;;;;;4985301;28;20125;-73
2023/03/09 10:36:31;;;;;;;39.10;26.42;;;2.70;99.90;;;;;;4970786;28;20056;-73
2023/03/09 10:39:10;;;;;;;34.53;24.73;;;2.70;99.90;;;;;;4973795;28;20062;-73
2023/03/09 10:41:39;;;;;;;45.58;27.65;;;2.70;99.90;;;;;;4979517;28;20045;-73
2023/03/09 10:44:05;;;;;;;38.78;27.10;;;2.80;99.90;;;;;;4987713;28;20093;-73
2023/03/09 10:46:31;;;;;;;36.78;26.08;;;2.90;99.90;;;;;;4972425;28;20439;-73
2023/03/09 10:49:17;;;;;;;38.05;25.98;;;2.90;99.90;;;;;;4973185;28;20050;-73
2023/03/09 10:51:58;;;;;;;32.03;23.70;;;2.90;99.90;;;;;;4982725;28;20133;-72
2023/03/09 10:54:32;;;;;;;37.60;25.27;;;2.90;99.90;;;;;;4986412;28;20054;-72
2023/03/09 10:56:58;;;;;;;38.42;25.10;;;2.90;99.90;;;;;;4986443;28;20522;-72
2023/03/09 10:59:25;;;;;;;37.47;24.48;;;2.90;99.90;;;;;;4969496;28;20181;-72
2023/03/09 11:01:54;;;;;;;34.75;24.85;;;2.90;99.90;;;;;;4975949;28;20392;-72
2023/03/09 11:04:23;;;;;;;35.13;24.48;;;2.90;99.90;;;;;;4975695;28;20483;-73
2023/03/09 11:07:04;;;;;;;35.13;23.90;;;2.90;99.90;;;;;;4984741;28;20042;-73
2023/03/09 11:09:34;;;;;;;35.47;23.50;;;2.90;99.90;;;;;;4985623;28;20472;-73
2023/03/09 11:12:17;;;;;;;34.05;24.50;;;2.90;99.90;;;;;;4974438;28;20100;-73
2023/03/09 11:14:45;;;;;;;34.65;24.65;;;2.90;99.90;;;;;;4985209;28;20046;-73
2023/03/09 11:17:36;;;;;;;31.83;23.27;;;2.90;99.90;;;;;;4975364;28;20050;-72
2023/03/09 11:20:23;;;;;;;38.55;26.25;;;2.90;99.90;;;;;;4971594;28;20061;-73
2023/03/09 11:23:14;;;;;;;39.92;26.40;;;2.90;99.90;;;;;;4973493;28;20064;-72
2023/03/09 11:26:18;;;;;;;32.35;23.88;;;3.00;99.90;;;;;;4972974;28;20126;-73
2023/03/09 11:29:02;;;;;;;40.88;26.58;;;3.00;99.90;;;;;;4975028;28;20053;-72
2023/03/09 11:31:36;;;;;;;36.28;24.67;;;3.00;99.90;;;;;;4974547;28;20495;-73
2023/03/09 11:34:05;;;;;;;39.13;26.90;;;3.10;99.90;;;;;;4988238;28;20042;-72
2023/03/09 11:36:52;;;;;;;35.78;25.15;;;3.10;99.90;;;;;;4967294;28;20046;-73
2023/03/09 11:39:30;;;;;;;34.58;23.73;;;3.10;99.90;;;;;;4982609;28;20072;-73
2023/03/09 11:42:04;;;;;;;40.72;26.80;;;3.10;99.90;;;;;;4972581;28;20054;-73
2023/03/09 11:44:42;;;;;;;32.08;23.17;;;3.10;99.90;;;;;;4968904;28;20158;-73
2023/03/09 11:47:25;;;;;;;36.35;25.52;;;3.10;99.90;;;;;;4964859;28;20121;-73
2023/03/09 11:49:54;;;;;;;37.42;25.15;;;3.20;99.90;;;;;;4984515;28;20129;-73
2023/03/09 11:52:34;;;;;;;37.55;25.52;;;3.20;99.90;;;;;;4966851;28;20054;-73
2023/03/09 11:55:08;;;;;;;38.17;26.25;;;3.20;99.90;;;;;;4972308;28;20053;-73
2023/03/09 11:57:36;;;;;;;41.00;25.58;;;3.20;99.90;;;;;;4971799;28;20080;-73
2023/03/09 12:00:07;;;;;;;34.28;23.02;;;3.20;99.90;;;;;;4972303;28;20495;-73
2023/03/09 12:03:02;;;;;;;37.88;23.58;;;3.20;99.90;;;;;;4972338;28;20096;-73
2023/03/09 12:05:57;;;;;;;37.05;25.42;;;3.20;99.90;;;;;;4971056;28;20050;-73
2023/03/09 12:08:39;;;;;;;36.72;24.48;;;3.20;99.90;;;;;;4971835;28;20054;-73
2023/03/09 12:11:15;;;;;;;35.72;23.38;;;3.20;99.90;;;;;;4971791;28;20058;-73
2023/03/09 12:14:09;;;;;;;35.15;25.52;;;3.20;99.90;;;;;;4971856;28;20057;-73
2023/03/09 12:16:40;;;;;;;37.42;24.00;;;3.20;99.90;;;;;;4975859;28;20137;-73
2023/03/09 12:19:14;;;;;;;33.88;24.38;;;3.20;99.90;;;;;;4972506;28;20065;-73
2023/03/09 12:21:43;;;;;;;33.00;24.00;;;3.30;99.90;;;;;;4987366;28;20479;-74
2023/03/09 12:24:28;;;;;;;41.55;25.95;;;3.30;99.90;;;;;;4974889;28;20058;-72
2023/03/09 12:27:19;;;;;;;34.38;23.52;;;3.30;99.90;;;;;;4985028;28;20086;-72
2023/03/09 12:30:11;;;;;;;30.38;21.30;;;3.30;99.90;;;;;;4989085;28;20060;-73
2023/03/09 12:32:41;;;;;;;31.40;23.50;;;3.30;99.90;;;;;;4967955;28;20574;-72
2023/03/09 12:35:21;;;;;;;40.95;23.42;;;3.30;99.90;;;;;;4981356;28;20184;-73
2023/03/09 12:37:46;;;;;;;36.65;24.10;;;3.20;99.90;;;;;;4977947;28;20046;-72
2023/03/09 12:40:15;;;;;;;37.50;25.45;;;3.20;99.90;;;;;;4985344;28;20063;-73
2023/03/09 12:42:42;;;;;;;35.88;24.83;;;3.20;99.90;;;;;;4968785;28;20054;-72
2023/03/09 12:45:12;;;;;;;34.47;23.77;;;3.30;99.90;;;;;;4986176;28;20046;-73
2023/03/09 12:47:40;;;;;;;33.08;22.20;;;3.30;99.90;;;;;;4970178;28;20042;-72
2023/03/09 12:50:30;;;;;;;38.92;25.52;;;3.30;99.90;;;;;;4974330;28;20514;-72